createdAt,value
2018-07-17T06:01:57.794Z,31.6
2018-07-17T06:02:47.225Z,31.8
2018-07-17T06:03:37.612Z,31.8
2018-07-17T06:04:27.705Z,31.9
2018-07-17T06:05:17.727Z,32.1
2018-07-17T06:06:08.060Z,32.1
2018-07-17T06:06:57.850Z,32.3
2018-07-17T06:07:47.875Z,32.3
2018-07-17T06:08:38.261Z,32.4
2018-07-17T06:09:28.158Z,32.6
2018-07-17T06:10:19.229Z,32.7
2018-07-17T06:11:07.928Z,32.8
2018-07-17T06:11:58.249Z,32.9
2018-07-17T06:12:48.593Z,33
2018-07-17T06:13:38.372Z,33.1
2018-07-17T06:14:28.445Z,33.3
2018-07-17T06:15:18.501Z,33.4
2018-07-17T06:16:08.860Z,33.6
2018-07-17T06:16:59.007Z,33.8
2018-07-17T06:17:48.955Z,33.8
2018-07-17T06:18:39.041Z,33.8
2018-07-17T06:19:28.310Z,33.8
2018-07-17T06:20:19.290Z,33.9
2018-07-17T06:21:08.784Z,33.9
2018-07-17T06:21:59.293Z,33.9
2018-07-17T06:22:48.810Z,34
2018-07-17T06:23:38.536Z,34.1
2018-07-17T06:24:28.405Z,34.1
2018-07-17T06:25:19.315Z,34.3
2018-07-17T06:26:09.043Z,34.4
2018-07-17T06:26:59.115Z,34.4
2018-07-17T06:27:49.168Z,34.5
2018-07-17T06:28:39.777Z,34.6
2018-07-17T06:29:29.614Z,34.6
2018-07-17T06:30:19.408Z,34.5
2018-07-17T06:31:09.505Z,34.4
2018-07-17T06:31:59.473Z,34.4
2018-07-17T06:32:49.576Z,34.4
2018-07-17T06:33:39.943Z,34.4
2018-07-17T06:34:29.491Z,34.5
2018-07-17T06:35:19.507Z,34.6
2018-07-17T06:36:10.083Z,34.6
2018-07-17T06:36:59.896Z,34.8
2018-07-17T06:37:50.047Z,34.9
2018-07-17T06:38:40.359Z,35.1
2018-07-17T06:39:29.860Z,35.1
2018-07-17T06:40:20.397Z,35.1
2018-07-17T06:41:10.477Z,35.1
2018-07-17T06:42:00.559Z,35.1
2018-07-17T06:42:50.909Z,35
2018-07-17T06:43:40.432Z,35.1
2018-07-17T06:44:30.361Z,35.1
2018-07-17T06:45:21.115Z,35.1
2018-07-17T06:46:11.166Z,35.1
2018-07-17T06:47:00.947Z,35
2018-07-17T06:47:51.253Z,34.9
2018-07-17T06:48:40.839Z,34.9
2018-07-17T06:49:31.087Z,34.9
2018-07-17T06:50:22.713Z,34.9
2018-07-17T06:51:11.019Z,34.8
2018-07-17T06:52:01.058Z,34.8
2018-07-17T06:52:51.408Z,34.8
2018-07-17T06:53:40.969Z,34.8
2018-07-17T06:54:31.499Z,34.8
2018-07-17T06:55:21.847Z,34.7
2018-07-17T06:56:11.914Z,34.7
2018-07-17T06:57:01.992Z,34.6
2018-07-17T06:57:51.507Z,34.6
2018-07-17T06:58:41.876Z,34.6
2018-07-17T06:59:31.604Z,34.6
2018-07-17T07:00:22.242Z,34.6
2018-07-17T07:01:12.037Z,34.6
2018-07-17T07:02:02.400Z,34.6
2018-07-17T07:02:51.868Z,34.6
2018-07-17T07:03:41.969Z,34.6
2018-07-17T07:04:32.040Z,34.6
2018-07-17T07:05:22.660Z,34.7
2018-07-17T07:06:11.875Z,34.8
2018-07-17T07:07:02.212Z,34.8
2018-07-17T07:07:52.550Z,34.9
2018-07-17T07:08:42.024Z,34.9
2018-07-17T07:09:32.434Z,34.9
2018-07-17T07:10:22.774Z,35
2018-07-17T07:11:13.662Z,35
2018-07-17T07:12:02.861Z,35
2018-07-17T07:12:52.695Z,35
2018-07-17T07:13:42.704Z,35
2018-07-17T07:14:32.263Z,34.9
2018-07-17T07:15:22.860Z,34.9
2018-07-17T07:16:13.506Z,34.9
2018-07-17T07:17:02.771Z,34.9
2018-07-17T07:17:53.343Z,34.8
2018-07-17T07:18:43.111Z,34.8
2018-07-17T07:19:33.707Z,34.8
2018-07-17T07:20:23.607Z,34.7
2018-07-17T07:21:13.839Z,34.7
2018-07-17T07:22:03.972Z,34.7
2018-07-17T07:22:53.165Z,34.8
2018-07-17T07:23:43.528Z,34.7
2018-07-17T07:24:34.133Z,34.8
2018-07-17T07:25:23.413Z,34.8
2018-07-17T07:26:13.474Z,34.8
2018-07-17T07:27:04.023Z,34.7
2018-07-17T07:27:53.854Z,34.7
2018-07-17T07:28:44.495Z,34.7
2018-07-17T07:29:34.224Z,34.7
2018-07-17T07:30:23.702Z,34.7
2018-07-17T07:31:14.078Z,34.6
2018-07-17T07:32:04.153Z,34.6
2018-07-17T07:32:53.638Z,34.6
2018-07-17T07:33:43.996Z,34.5
2018-07-17T07:34:34.431Z,34.4
2018-07-17T07:35:24.420Z,34.4
2018-07-17T07:36:15.067Z,34.4
2018-07-17T07:37:04.853Z,34.3
2018-07-17T07:37:55.132Z,34.3
2018-07-17T07:38:44.657Z,34.3
2018-07-17T07:39:34.729Z,34.2
2018-07-17T07:40:25.051Z,34.1
2018-07-17T07:41:15.114Z,34.1
2018-07-17T07:42:04.611Z,34
2018-07-17T07:42:56.805Z,34
2018-07-17T07:43:45.478Z,33.9
2018-07-17T07:44:35.346Z,33.9
2018-07-17T07:45:25.464Z,33.8
2018-07-17T07:46:15.190Z,33.4
2018-07-17T07:47:05.305Z,33.3
2018-07-17T07:47:55.688Z,33.1
2018-07-17T07:48:45.064Z,33.1
2018-07-17T07:49:35.764Z,33.1
2018-07-17T07:50:25.557Z,33
2018-07-17T07:51:15.280Z,32.9
2018-07-17T07:52:06.226Z,32.9
2018-07-17T07:52:55.697Z,32.9
2018-07-17T07:53:46.308Z,32.8
2018-07-17T07:54:36.399Z,32.8
2018-07-17T07:55:25.996Z,32.7
2018-07-17T07:56:16.512Z,32.6
2018-07-17T07:57:06.050Z,32.6
2018-07-17T07:57:56.662Z,32.5
2018-07-17T07:58:45.881Z,32.4
2018-07-17T07:59:36.493Z,32.4
2018-07-17T08:00:26.021Z,32.3
2018-07-17T08:01:16.390Z,32.3
2018-07-17T08:02:06.967Z,32.2
2018-07-17T08:02:56.765Z,32.2
2018-07-17T08:03:47.855Z,32.1
2018-07-17T08:04:36.359Z,32.1
2018-07-17T08:05:26.642Z,32
2018-07-17T08:06:17.259Z,31.9
2018-07-17T08:07:06.814Z,31.9
2018-07-17T08:07:57.114Z,31.7
2018-07-17T08:08:47.493Z,31.6
2018-07-17T08:09:36.723Z,31.4
2018-07-17T08:10:26.496Z,31.2
2018-07-17T08:11:17.123Z,31
2018-07-17T08:12:07.964Z,30.9
2018-07-17T08:12:57.851Z,30.8
2018-07-17T08:13:47.619Z,30.7
2018-07-17T08:14:36.834Z,30.6
2018-07-17T08:15:27.982Z,30.5
2018-07-17T08:16:18.078Z,30.4
2018-07-17T08:17:07.868Z,30.3
2018-07-17T08:17:58.183Z,30.3
2018-07-17T08:18:47.943Z,30.2
2018-07-17T08:19:37.796Z,30.1
2018-07-17T08:20:27.636Z,30.1
2018-07-17T08:21:17.379Z,29.9
2018-07-17T08:22:07.999Z,29.9
2018-07-17T08:22:57.812Z,29.8
2018-07-17T08:23:47.591Z,29.8
2018-07-17T08:24:37.930Z,29.7
2018-07-17T08:25:28.730Z,29.6
2018-07-17T08:26:18.805Z,29.6
2018-07-17T08:27:08.657Z,29.5
2018-07-17T08:27:58.081Z,29.4
2018-07-17T08:28:48.727Z,29.3
2018-07-17T08:29:39.330Z,29.3
2018-07-17T08:30:28.561Z,29.3
2018-07-17T08:31:19.262Z,29.2
2018-07-17T08:32:08.998Z,29.1
2018-07-17T08:32:59.355Z,29.1
2018-07-17T08:33:49.142Z,29.1
2018-07-17T08:34:38.922Z,29
2018-07-17T08:35:29.281Z,28.9
2018-07-17T08:36:18.524Z,28.9
2018-07-17T08:37:09.107Z,28.9
2018-07-17T08:37:59.224Z,28.8
2018-07-17T08:38:49.224Z,28.8
2018-07-17T08:39:39.577Z,28.7
2018-07-17T08:40:29.693Z,28.7
2018-07-17T08:41:19.792Z,28.6
2018-07-17T08:42:09.764Z,28.6
2018-07-17T08:42:59.865Z,28.6
2018-07-17T08:43:50.169Z,28.5
2018-07-17T08:44:39.804Z,28.5
2018-07-17T08:45:29.513Z,28.5
2018-07-17T08:46:19.184Z,28.4
2018-07-17T08:47:10.184Z,28.4
2018-07-17T08:47:59.381Z,28.4
2018-07-17T08:48:49.627Z,28.3
2018-07-17T08:49:40.158Z,28.3
2018-07-17T08:50:29.935Z,28.3
2018-07-17T08:51:20.473Z,28.3
2018-07-17T08:52:09.980Z,28.3
2018-07-17T08:53:00.975Z,28.2
2018-07-17T08:53:50.674Z,28.2
2018-07-17T08:54:41.820Z,28.1
2018-07-17T08:55:31.150Z,28.1
2018-07-17T08:56:20.340Z,28.1
2018-07-17T08:57:10.915Z,28.1
2018-07-17T08:58:01.013Z,28.1
2018-07-17T08:58:50.776Z,28
2018-07-17T08:59:41.141Z,28
2018-07-17T09:00:31.887Z,27.9
2018-07-17T09:01:20.977Z,27.9
2018-07-17T09:02:11.029Z,27.9
2018-07-17T09:03:00.833Z,27.9
2018-07-17T09:03:51.142Z,27.9
2018-07-17T09:04:41.539Z,27.9
2018-07-17T09:08:02.031Z,27.8
2018-07-17T09:08:52.130Z,27.8
2018-07-17T09:09:42.202Z,27.8
2018-07-17T09:10:31.961Z,27.7
2018-07-17T09:11:22.363Z,27.7
2018-07-17T09:12:11.563Z,27.7
2018-07-17T09:13:02.785Z,27.6
2018-07-17T09:13:52.261Z,27.6
2018-07-17T09:14:42.272Z,27.6
2018-07-17T09:15:32.167Z,27.6
2018-07-17T09:16:22.430Z,29.4
2018-07-17T09:17:11.607Z,30.1
2018-07-17T09:18:02.632Z,31.8
2018-07-17T09:18:52.916Z,33.6
2018-07-17T09:19:42.930Z,34.3
2018-07-17T09:20:32.158Z,34.2
2018-07-17T09:21:22.929Z,33.9
2018-07-17T09:22:12.854Z,33.7
2018-07-17T09:23:02.669Z,33.8
2018-07-17T09:23:52.729Z,34
2018-07-17T09:24:42.254Z,34.3
2018-07-17T09:25:32.872Z,34.6
2018-07-17T09:26:22.896Z,34.7
2018-07-17T09:27:13.220Z,34.8
2018-07-17T09:28:03.337Z,34.8
2018-07-17T09:28:53.207Z,34.9
2018-07-17T09:29:43.409Z,35.1
2018-07-17T09:30:33.481Z,35.2
2018-07-17T09:31:23.572Z,35.3
2018-07-17T09:32:13.897Z,35.4
2018-07-17T09:33:04.091Z,35.5
2018-07-17T09:33:53.761Z,35.6
2018-07-17T09:34:43.844Z,35.8
2018-07-17T09:35:33.415Z,35.9
2018-07-17T09:36:23.382Z,36.1
2018-07-17T09:37:13.495Z,36.2
2018-07-17T09:38:03.868Z,36.3
2018-07-17T09:38:54.534Z,36.5
2018-07-17T09:39:43.973Z,36.7
2018-07-17T09:40:34.058Z,36.9
2018-07-17T09:41:24.117Z,37.1
2018-07-17T09:42:14.209Z,37.3
2018-07-17T09:43:04.745Z,37.4
2018-07-17T09:43:54.784Z,37.7
2018-07-17T09:44:44.870Z,37.9
2018-07-17T09:45:34.950Z,38.2
2018-07-17T09:46:24.731Z,38.4
2018-07-17T09:47:15.139Z,38.7
2018-07-17T09:48:04.044Z,38.9
2018-07-17T09:48:54.662Z,39.2
2018-07-17T09:49:44.432Z,39.4
2018-07-17T09:50:35.044Z,39.7
2018-07-17T09:51:24.884Z,39.9
2018-07-17T09:52:14.638Z,40.2
2018-07-17T09:53:04.957Z,40.3
2018-07-17T09:53:55.307Z,40.5
2018-07-17T09:54:45.115Z,40.8
2018-07-17T09:55:35.174Z,41
2018-07-17T09:56:24.975Z,41.2
2018-07-17T09:57:15.877Z,41.4
2018-07-17T09:58:04.833Z,41.6
2018-07-17T09:58:55.733Z,41.8
2018-07-17T09:59:45.218Z,42.1
2018-07-17T10:00:35.839Z,42.2
2018-07-17T10:01:25.955Z,42.4
2018-07-17T10:02:16.261Z,42.6
2018-07-17T10:03:05.717Z,42.6
2018-07-17T10:03:56.374Z,42.7
2018-07-17T10:04:46.724Z,42.8
2018-07-17T10:05:36.500Z,42.8
2018-07-17T10:06:27.352Z,42.7
2018-07-17T10:07:15.818Z,42.6
2018-07-17T10:08:06.679Z,42.6
2018-07-17T10:08:56.454Z,42.5
2018-07-17T10:09:46.811Z,42.6
2018-07-17T10:10:36.839Z,42.6
2018-07-17T10:11:26.399Z,42.6
2018-07-17T10:12:16.747Z,42.6
2018-07-17T10:13:06.246Z,42.5
2018-07-17T10:13:56.949Z,42.4
2018-07-17T10:14:46.992Z,42.3
2018-07-17T10:15:36.804Z,42.2
2018-07-17T10:16:26.767Z,42.1
2018-07-17T10:17:17.472Z,42.1
2018-07-17T10:18:07.488Z,42
2018-07-17T10:18:57.256Z,42
2018-07-17T10:19:47.074Z,41.9
2018-07-17T10:20:36.808Z,41.9
2018-07-17T10:21:27.727Z,41.9
2018-07-17T10:22:17.517Z,41.8
2018-07-17T10:23:07.287Z,41.8
2018-07-17T10:23:57.595Z,41.9
2018-07-17T10:24:47.735Z,41.9
2018-07-17T10:25:37.510Z,41.9
2018-07-17T10:26:29.317Z,41.9
2018-07-17T10:27:17.857Z,41.9
2018-07-17T10:28:07.688Z,42.1
2018-07-17T10:28:57.748Z,42.2
2018-07-17T10:29:47.855Z,42.3
2018-07-17T10:30:38.110Z,42.5
2018-07-17T10:31:28.266Z,42.7
2018-07-17T10:32:18.979Z,42.8
2018-07-17T10:33:08.045Z,42.9
2018-07-17T10:33:58.394Z,42.9
2018-07-17T10:34:48.401Z,43.1
2018-07-17T10:35:38.783Z,43.1
2018-07-17T10:36:28.871Z,43.2
2018-07-17T10:37:18.896Z,43.2
2018-07-17T10:38:08.715Z,43.1
2018-07-17T10:38:59.093Z,43.2
2018-07-17T10:39:48.836Z,43.3
2018-07-17T10:40:39.215Z,43.3
2018-07-17T10:41:28.978Z,43.4
2018-07-17T10:42:19.327Z,43.4
2018-07-17T10:43:08.650Z,43.4
2018-07-17T10:43:59.460Z,43.4
2018-07-17T10:44:49.221Z,43.5
2018-07-17T10:45:38.751Z,43.6
2018-07-17T10:46:29.657Z,43.8
2018-07-17T10:47:19.697Z,44.2
2018-07-17T10:48:09.780Z,44.5
2018-07-17T10:48:59.270Z,44.8
2018-07-17T10:49:49.349Z,44.8
2018-07-17T10:50:39.973Z,45
2018-07-17T10:51:30.070Z,45.1
2018-07-17T10:52:19.817Z,45.2
2018-07-17T10:53:09.878Z,45.2
2018-07-17T10:53:59.683Z,45.3
2018-07-17T10:54:49.431Z,45.3
2018-07-17T10:55:40.075Z,45.4
2018-07-17T10:56:30.410Z,45.5
2018-07-17T10:57:20.187Z,45.5
2018-07-17T10:58:10.502Z,45.5
2018-07-17T10:59:00.629Z,45.6
2018-07-17T10:59:50.355Z,45.7
2018-07-17T11:00:39.877Z,45.8
2018-07-17T11:01:30.555Z,46
2018-07-17T11:02:20.815Z,46.1
2018-07-17T11:03:10.942Z,46.2
2018-07-17T11:04:00.962Z,46.2
2018-07-17T11:04:51.035Z,46.3
2018-07-17T11:05:40.883Z,46.4
2018-07-17T11:06:31.122Z,46.6
2018-07-17T11:07:21.240Z,46.7
2018-07-17T11:08:10.765Z,46.8
2018-07-17T11:09:00.901Z,46.9
2018-07-17T11:09:50.885Z,47.1
2018-07-17T11:10:41.492Z,47.3
2018-07-17T11:11:30.996Z,47.5
2018-07-17T11:12:21.344Z,47.7
2018-07-17T11:13:11.404Z,47.9
2018-07-17T11:14:01.467Z,48
2018-07-17T11:14:51.899Z,48.1
2018-07-17T11:15:41.600Z,48.3
2018-07-17T11:16:31.413Z,48.3
2018-07-17T11:17:22.012Z,48.4
2018-07-17T11:18:11.241Z,48.4
2018-07-17T11:19:02.178Z,48.5
2018-07-17T11:19:52.232Z,48.5
2018-07-17T11:20:42.275Z,48.4
2018-07-17T11:21:32.339Z,48.3
2018-07-17T11:22:21.611Z,48.3
2018-07-17T11:23:12.264Z,48.3
2018-07-17T11:24:01.717Z,48.3
2018-07-17T11:24:52.361Z,48.3
2018-07-17T11:25:41.649Z,48.3
2018-07-17T11:26:32.449Z,48.3
2018-07-17T11:27:21.501Z,48.3
2018-07-17T11:28:11.833Z,48.3
2018-07-17T11:29:02.930Z,48.3
2018-07-17T11:29:52.557Z,48.3
2018-07-17T11:30:42.574Z,48.4
2018-07-17T11:31:32.079Z,48.4
2018-07-17T11:32:22.431Z,48.6
2018-07-17T11:33:12.533Z,48.6
2018-07-17T11:34:02.311Z,48.6
2018-07-17T11:34:52.153Z,48.6
2018-07-17T11:35:42.948Z,48.6
2018-07-17T11:36:33.512Z,48.8
2018-07-17T11:37:23.275Z,48.9
2018-07-17T11:38:12.910Z,49.1
2018-07-17T11:39:03.143Z,49.1
2018-07-17T11:39:53.201Z,49.1
2018-07-17T11:40:43.292Z,49.3
2018-07-17T11:41:33.049Z,49.3
2018-07-17T11:42:23.680Z,49.3
2018-07-17T11:43:13.477Z,49.3
2018-07-17T11:44:04.140Z,49.2
2018-07-17T11:44:54.137Z,49.2
2018-07-17T11:45:44.217Z,49.1
2018-07-17T11:46:34.010Z,49.1
2018-07-17T11:47:23.787Z,49.2
2018-07-17T11:48:14.377Z,49.3
2018-07-17T11:49:04.475Z,49.2
2018-07-17T11:49:54.292Z,49.2
2018-07-17T11:50:44.641Z,49.1
2018-07-17T11:51:34.374Z,49.1
2018-07-17T11:52:24.449Z,49
2018-07-17T11:53:15.372Z,49
2018-07-17T11:54:04.682Z,48.9
2018-07-17T11:54:54.676Z,48.9
2018-07-17T11:55:43.959Z,48.9
2018-07-17T11:56:34.537Z,48.9
2018-07-17T11:57:24.295Z,48.9
2018-07-17T11:58:14.647Z,48.9
2018-07-17T11:59:07.225Z,49
2018-07-17T11:59:54.780Z,49.1
2018-07-17T12:00:44.572Z,49.1
2018-07-17T12:01:35.485Z,49.1
2018-07-17T12:02:25.027Z,49.1
2018-07-17T12:03:15.628Z,49.1
2018-07-17T12:04:05.384Z,49.1
2018-07-17T12:04:55.438Z,49
2018-07-17T12:05:45.995Z,48.9
2018-07-17T12:06:35.848Z,48.9
2018-07-17T12:07:25.631Z,48.8
2018-07-17T12:08:15.711Z,48.7
2018-07-17T12:09:05.997Z,48.6
2018-07-17T12:09:55.291Z,48.5
2018-07-17T12:10:45.315Z,48.4
2018-07-17T12:11:35.935Z,48.3
2018-07-17T12:12:26.172Z,48.2
2018-07-17T12:13:16.315Z,48.1
2018-07-17T12:14:05.837Z,48.1
2018-07-17T12:14:56.466Z,48
2018-07-17T12:15:46.292Z,47.9
2018-07-17T12:16:35.758Z,47.9
2018-07-17T12:17:26.359Z,47.8
2018-07-17T12:18:16.163Z,47.8
2018-07-17T12:19:06.826Z,47.8
2018-07-17T12:19:57.228Z,47.8
2018-07-17T12:20:46.671Z,47.8
2018-07-17T12:21:36.153Z,47.7
2018-07-17T12:22:26.810Z,47.7
2018-07-17T12:23:16.286Z,47.6
2018-07-17T12:24:06.955Z,47.6
2018-07-17T12:24:57.239Z,47.6
2018-07-17T12:25:46.748Z,47.6
2018-07-17T12:26:36.888Z,47.6
2018-07-17T12:27:26.423Z,47.6
2018-07-17T12:28:16.778Z,47.6
2018-07-17T12:29:07.110Z,47.5
2018-07-17T12:29:56.914Z,47.4
2018-07-17T12:30:47.220Z,47.4
2018-07-17T12:31:37.278Z,47.4
2018-07-17T12:32:27.060Z,47.3
2018-07-17T12:33:17.120Z,47.2
2018-07-17T12:34:07.237Z,47.2
2018-07-17T12:34:57.722Z,47.1
2018-07-17T12:35:48.116Z,47.1
2018-07-17T12:36:37.398Z,46.9
2018-07-17T12:37:27.422Z,46.9
2018-07-17T12:38:18.360Z,46.8
2018-07-17T12:39:08.145Z,46.8
2018-07-17T12:39:58.162Z,46.8
2018-07-17T12:40:47.093Z,46.7
2018-07-17T12:41:38.533Z,46.6
2018-07-17T12:42:27.834Z,46.5
2018-07-17T12:43:18.135Z,46.4
2018-07-17T12:44:08.210Z,46.4
2018-07-17T12:44:57.982Z,46.3
2018-07-17T12:45:48.588Z,46.3
2018-07-17T12:46:38.707Z,46.3
2018-07-17T12:47:28.729Z,46.2
2018-07-17T12:48:18.540Z,46.1
2018-07-17T12:49:07.880Z,46.1
2018-07-17T12:49:59.082Z,46
2018-07-17T12:50:49.270Z,45.9
2018-07-17T12:51:38.762Z,45.9
2018-07-17T12:52:29.108Z,45.8
2018-07-17T12:53:19.446Z,45.8
2018-07-17T12:54:08.978Z,45.7
2018-07-17T12:54:58.477Z,45.6
2018-07-17T12:55:49.664Z,45.6
2018-07-17T12:56:39.748Z,45.6
2018-07-17T12:57:29.871Z,45.6
2018-07-17T12:58:19.402Z,45.6
2018-07-17T12:59:09.328Z,45.6
2018-07-17T12:59:58.588Z,45.6
2018-07-17T13:00:49.802Z,45.6
2018-07-17T13:01:39.291Z,45.6
2018-07-17T13:02:29.622Z,45.5
2018-07-17T13:03:19.957Z,45.5
2018-07-17T13:04:09.757Z,45.4
2018-07-17T13:04:59.812Z,45.4
2018-07-17T13:05:49.849Z,45.4
2018-07-17T13:06:39.929Z,45.3
2018-07-17T13:07:30.601Z,45.3
2018-07-17T13:08:20.346Z,45.3
2018-07-17T13:09:10.260Z,45.2
2018-07-17T13:10:00.495Z,45.1
2018-07-17T13:10:50.562Z,45.1
2018-07-17T13:11:40.632Z,44.9
2018-07-17T13:12:30.684Z,44.9
2018-07-17T13:13:20.987Z,44.9
2018-07-17T13:14:11.152Z,44.9
2018-07-17T13:15:01.163Z,44.8
2018-07-17T13:15:51.208Z,44.8
2018-07-17T13:16:40.980Z,44.8
2018-07-17T13:17:31.661Z,44.8
2018-07-17T13:18:20.854Z,44.8
2018-07-17T13:19:11.443Z,44.8
2018-07-17T13:20:01.523Z,44.8
2018-07-17T13:20:51.560Z,44.7
2018-07-17T13:21:41.599Z,44.8
2018-07-17T13:22:31.421Z,44.8
2018-07-17T13:23:21.768Z,44.7
2018-07-17T13:24:10.998Z,44.7
2018-07-17T13:25:01.347Z,44.7
2018-07-17T13:25:51.670Z,44.7
2018-07-17T13:26:42.043Z,44.7
2018-07-17T13:27:32.081Z,44.7
2018-07-17T13:28:21.860Z,44.8
2018-07-17T13:29:12.200Z,44.8
2018-07-17T13:30:02.335Z,44.8
2018-07-17T13:30:52.073Z,44.9
2018-07-17T13:31:42.425Z,45
2018-07-17T13:32:32.472Z,45.1
2018-07-17T13:33:22.282Z,45.3
2018-07-17T13:34:12.622Z,45.3
2018-07-17T13:35:02.699Z,45.3
2018-07-17T13:35:52.439Z,45.2
2018-07-17T13:36:42.833Z,45.2
2018-07-17T13:37:32.873Z,45.2
2018-07-17T13:38:22.128Z,45.2
2018-07-17T13:39:13.660Z,45.2
2018-07-17T13:40:02.821Z,45.1
2018-07-17T13:40:53.176Z,45.1
2018-07-17T13:41:43.218Z,45.1
2018-07-17T13:42:32.967Z,45.1
2018-07-17T13:43:23.340Z,45.1
2018-07-17T13:44:12.852Z,45.1
2018-07-17T13:45:02.968Z,45.2
2018-07-17T13:45:53.627Z,45.1
2018-07-17T13:46:42.777Z,45.1
2018-07-17T13:47:33.370Z,45
2018-07-17T13:48:23.155Z,44.9
2018-07-17T13:49:13.491Z,44.9
2018-07-17T13:50:03.774Z,45
2018-07-17T13:50:53.749Z,45
2018-07-17T13:51:44.039Z,45
2018-07-17T13:52:33.250Z,44.9
2018-07-17T13:53:24.167Z,44.9
2018-07-17T13:54:13.915Z,44.8
2018-07-17T13:55:03.422Z,44.8
2018-07-17T13:55:53.777Z,44.8
2018-07-17T13:56:43.814Z,44.8
2018-07-17T13:57:33.893Z,44.8
2018-07-17T13:58:23.957Z,44.8
2018-07-17T13:59:14.616Z,44.8
2018-07-17T14:00:05.770Z,44.8
2018-07-17T14:00:54.426Z,44.8
2018-07-17T14:01:44.237Z,44.8
2018-07-17T14:02:35.120Z,44.8
2018-07-17T14:03:24.579Z,44.9
2018-07-17T14:04:14.984Z,45
2018-07-17T14:05:05.038Z,45.1
2018-07-17T14:05:55.090Z,45.1
2018-07-17T14:06:44.947Z,45.1
2018-07-17T14:07:34.954Z,45.1
2018-07-17T14:08:24.707Z,45.1
2018-07-17T14:09:15.006Z,45
2018-07-17T14:10:04.852Z,44.9
2018-07-17T14:10:55.198Z,44.9
2018-07-17T14:11:44.250Z,44.8
2018-07-17T14:12:34.771Z,44.8
2018-07-17T14:13:25.471Z,44.8
2018-07-17T14:14:15.472Z,44.8
2018-07-17T14:15:05.875Z,44.7
2018-07-17T14:15:55.853Z,44.8
2018-07-17T14:16:44.876Z,44.7
2018-07-17T14:17:36.257Z,44.6
2018-07-17T14:18:25.554Z,44.6
2018-07-17T14:19:15.847Z,44.6
2018-07-17T14:20:05.898Z,44.6
2018-07-17T14:20:55.784Z,44.6
2018-07-17T14:21:46.043Z,44.5
2018-07-17T14:22:36.098Z,44.4
2018-07-17T14:23:25.621Z,44.4
2018-07-17T14:24:16.487Z,44.3
2018-07-17T14:25:06.304Z,44.3
2018-07-17T14:25:56.744Z,44.2
2018-07-17T14:26:45.873Z,44.2
2018-07-17T14:27:36.793Z,44.1
2018-07-17T14:28:26.934Z,44.1
2018-07-17T14:29:16.893Z,44.1
2018-07-17T14:30:06.910Z,43.9
2018-07-17T14:30:56.234Z,43.9
2018-07-17T14:31:47.166Z,43.9
2018-07-17T14:32:37.171Z,43.8
2018-07-17T14:33:26.660Z,43.8
2018-07-17T14:34:17.255Z,43.8
2018-07-17T14:35:07.086Z,43.7
2018-07-17T14:35:58.108Z,43.6
2018-07-17T14:36:46.954Z,43.6
2018-07-17T14:37:37.549Z,43.5
2018-07-17T14:38:26.735Z,43.4
2018-07-17T14:39:17.642Z,43.4
2018-07-17T14:40:07.716Z,43.4
2018-07-17T14:40:57.220Z,43.3
2018-07-17T14:41:47.863Z,43.3
2018-07-17T14:42:37.688Z,43.3
2018-07-17T14:43:27.971Z,43.3
2018-07-17T14:44:17.757Z,43.3
2018-07-17T14:45:07.525Z,43.3
2018-07-17T14:45:58.222Z,43.3
2018-07-17T14:46:47.721Z,43.3
2018-07-17T14:47:37.788Z,43.2
2018-07-17T14:48:28.355Z,43.2
2018-07-17T14:49:18.021Z,43.2
2018-07-17T14:50:08.034Z,43.1
2018-07-17T14:50:57.793Z,43.1
2018-07-17T14:51:48.397Z,43.1
2018-07-17T14:52:37.871Z,43.1
2018-07-17T14:53:28.877Z,43.1
2018-07-17T14:54:18.613Z,43.1
2018-07-17T14:55:08.886Z,43.1
2018-07-17T14:55:58.377Z,43.1
2018-07-17T14:56:49.079Z,43.1
2018-07-17T14:57:38.816Z,43.1
2018-07-17T14:58:29.109Z,43.1
2018-07-17T14:59:18.957Z,43.1
2018-07-17T15:00:09.310Z,43.1
2018-07-17T15:00:58.489Z,43
2018-07-17T15:01:49.084Z,43
2018-07-17T15:02:38.982Z,42.9
2018-07-17T15:03:29.245Z,42.9
2018-07-17T15:04:19.644Z,42.8
2018-07-17T15:05:09.633Z,42.8
2018-07-17T15:05:59.718Z,42.8
2018-07-17T15:06:49.249Z,42.8
2018-07-17T15:07:38.786Z,42.8
2018-07-17T15:08:29.519Z,42.7
2018-07-17T15:09:19.424Z,42.7
2018-07-17T15:10:08.938Z,42.7
2018-07-17T15:10:59.564Z,42.6
2018-07-17T15:11:49.919Z,42.6
2018-07-17T15:12:40.311Z,42.6
2018-07-17T15:13:30.297Z,42.6
2018-07-17T15:14:20.096Z,42.5
2018-07-17T15:15:10.150Z,42.4
2018-07-17T15:16:01.287Z,42.4
2018-07-17T15:16:50.611Z,42.4
2018-07-17T15:17:40.612Z,42.4
2018-07-17T15:18:30.167Z,42.3
2018-07-17T15:19:20.255Z,42.3
2018-07-17T15:20:10.533Z,42.3
2018-07-17T15:21:00.906Z,42.2
2018-07-17T15:21:50.169Z,42.1
2018-07-17T15:22:41.029Z,42.1
2018-07-17T15:23:30.307Z,42.1
2018-07-17T15:24:20.070Z,42.1
2018-07-17T15:25:10.660Z,42.1
2018-07-17T15:26:00.999Z,42.1
2018-07-17T15:26:50.797Z,42
2018-07-17T15:27:41.413Z,42
2018-07-17T15:28:30.929Z,41.9
2018-07-17T15:29:21.578Z,41.9
2018-07-17T15:30:11.287Z,41.8
2018-07-17T15:31:01.422Z,41.8
2018-07-17T15:31:50.610Z,41.8
2018-07-17T15:32:41.772Z,41.7
2018-07-17T15:33:31.320Z,41.7
2018-07-17T15:34:21.346Z,41.6
2018-07-17T15:35:12.763Z,41.6
2018-07-17T15:36:02.120Z,41.5
2018-07-17T15:36:51.575Z,41.5
2018-07-17T15:37:41.076Z,41.4
2018-07-17T15:38:32.514Z,41.4
2018-07-17T15:39:21.758Z,41.4
2018-07-17T15:40:12.347Z,41.4
2018-07-17T15:41:02.515Z,41.4
2018-07-17T15:41:52.182Z,41.3
2018-07-17T15:42:42.021Z,41.3
2018-07-17T15:43:31.775Z,41.3
2018-07-17T15:44:22.688Z,41.3
2018-07-17T15:45:12.751Z,41.2
2018-07-17T15:46:02.588Z,41.2
2018-07-17T15:46:52.877Z,41.1
2018-07-17T15:47:42.972Z,41.1
2018-07-17T15:48:32.241Z,41
2018-07-17T15:49:22.855Z,40.9
2018-07-17T15:50:12.613Z,40.9
2018-07-17T15:51:03.199Z,40.9
2018-07-17T15:51:53.255Z,40.9
2018-07-17T15:52:42.767Z,40.8
2018-07-17T15:53:33.156Z,40.8
2018-07-17T15:54:23.223Z,40.7
2018-07-17T15:55:12.967Z,40.6
2018-07-17T15:56:02.763Z,40.6
2018-07-17T15:56:53.085Z,40.4
2018-07-17T15:57:43.789Z,40.3
2018-07-17T15:58:33.473Z,40.1
2018-07-17T15:59:23.585Z,39.8
2018-07-17T16:00:13.933Z,39.6
2018-07-17T16:01:04.012Z,39.3
2018-07-17T16:01:53.755Z,39.1
2018-07-17T16:02:44.062Z,38.9
2018-07-17T16:03:33.845Z,38.7
2018-07-17T16:04:23.667Z,38.5
2018-07-17T16:05:14.039Z,38.4
2018-07-17T16:06:04.399Z,38.1
2018-07-17T16:06:54.398Z,37.9
2018-07-17T16:07:44.472Z,37.8
2018-07-17T16:08:34.614Z,37.6
2018-07-17T16:09:24.611Z,37.4
2018-07-17T16:10:14.907Z,37.3
2018-07-17T16:11:04.709Z,37.1
2018-07-17T16:11:54.829Z,36.9
2018-07-17T16:12:44.844Z,36.8
2018-07-17T16:13:37.050Z,36.6
2018-07-17T16:14:32.324Z,36.4
2018-07-17T16:15:15.024Z,36.3
2018-07-17T16:16:04.841Z,36.2
2018-07-17T16:16:55.191Z,36.1
2018-07-17T16:17:44.968Z,35.9
2018-07-17T16:18:34.763Z,35.8
2018-07-17T16:19:25.109Z,35.7
2018-07-17T16:20:15.653Z,35.6
2018-07-17T16:21:05.627Z,35.5
2018-07-17T16:21:55.077Z,35.4
2018-07-17T16:22:45.379Z,35.3
2018-07-17T16:23:35.708Z,35.2
2018-07-17T16:24:25.902Z,35.1
2018-07-17T16:25:15.564Z,35
2018-07-17T16:26:05.346Z,34.9
2018-07-17T16:26:55.688Z,34.8
2018-07-17T16:27:45.468Z,34.7
2018-07-17T16:28:35.260Z,34.6
2018-07-17T16:29:24.900Z,34.5
2018-07-17T16:30:15.944Z,34.4
2018-07-17T16:31:06.065Z,34.4
2018-07-17T16:31:56.125Z,34.3
2018-07-17T16:32:45.313Z,34.2
2018-07-17T16:33:36.214Z,34.1
2018-07-17T16:34:26.261Z,34.1
2018-07-17T16:35:16.410Z,34
2018-07-17T16:36:06.672Z,33.9
2018-07-17T16:36:56.652Z,33.8
2018-07-17T16:37:46.515Z,33.8
2018-07-17T16:38:36.575Z,33.8
2018-07-17T16:39:26.960Z,33.6
2018-07-17T16:40:17.004Z,33.6
2018-07-17T16:41:07.073Z,33.6
2018-07-17T16:41:57.072Z,33.5
2018-07-17T16:42:47.243Z,33.4
2018-07-17T16:43:36.971Z,33.4
2018-07-17T16:44:27.295Z,33.4
2018-07-17T16:45:17.358Z,33.3
2018-07-17T16:46:07.433Z,33.3
2018-07-17T16:46:57.195Z,33.2
2018-07-17T16:47:46.786Z,33.1
2018-07-17T16:48:37.055Z,33.1
2018-07-17T16:49:26.684Z,33.1
2018-07-17T16:50:17.763Z,33
2018-07-17T16:51:07.839Z,32.9
2018-07-17T16:51:56.822Z,32.9
2018-07-17T16:52:47.958Z,32.9
2018-07-17T16:53:37.445Z,32.8
2018-07-17T16:54:28.094Z,32.8
2018-07-17T16:55:17.373Z,32.8
2018-07-17T16:56:07.936Z,32.7
2018-07-17T16:56:58.028Z,32.7
2018-07-17T16:57:47.517Z,32.6
2018-07-17T16:58:37.898Z,32.6
2018-07-17T16:59:27.916Z,32.6
2018-07-17T17:00:18.513Z,32.5
2018-07-17T17:01:08.120Z,32.5
2018-07-17T17:01:58.666Z,32.4
2018-07-17T17:02:48.801Z,32.4
2018-07-17T17:03:38.771Z,32.4
2018-07-17T17:04:28.838Z,32.4
2018-07-17T17:05:18.141Z,32.4
2018-07-17T17:06:08.726Z,32.3
2018-07-17T17:06:59.028Z,32.3
2018-07-17T17:07:48.798Z,32.3
2018-07-17T17:08:39.137Z,32.2
2018-07-17T17:09:28.674Z,32.2
2018-07-17T17:10:19.007Z,32.1
2018-07-17T17:11:09.177Z,32.1
2018-07-17T17:11:58.585Z,32.1
2018-07-17T17:12:49.451Z,32.1